Pays
Station

 

Conditions  météo  pour  Kalamata Airport  -  Grèce    Grèce

  
16 °C
    
 
 

METAR pour Kalamata Airport :

LGKL 191120Z 30005KT 9999 FEW025 16/04 Q1019

 

Voici le bulletin pour Kalamata Airport - Grèce.
 
Le bulletin a été fait il y a 54 minutes, à 11:20 UTC .
Le vent soufflait à la vitesse de 2.6 mètres par seconde de Ouest/Nord-ouest (300°).
 
La température était de 16 °C, avec un point de rosée à 4 °C.
La pression atmosphérique était de 1019 hPa.
L'humidité relative était de 44.7%.
 
Il y avait 1 à 2/8ème de nébulosité à une hauteur de 762 mètres.
 
La visibilité globale était de supérieure à 10 kilomètres.
 

 
 
 

Pays :   A   B   C   D   E   F   G   H   I   J   K   L   M   N   O   P   Q   R   S   T   U   V   W   Y   Z

 

Partenaires :  Info Météo avec Met'info
Météo Marine avec MeteoMarine.net
Infos Site  |  Infos Légales  |  Crédits  |  Confidentialité
Contactez-nous  |  Ajouter aux favoris
© 2013-2018 METAR - Tous droits réservés